createdAt,value
2019-05-29T00:00:39.015Z,0.00
2019-05-29T00:01:39.072Z,0.00
2019-05-29T00:02:39.077Z,0.00
2019-05-29T00:03:39.012Z,0.00
2019-05-29T00:04:39.424Z,0.00
2019-05-29T00:05:39.054Z,0.00
2019-05-29T00:06:38.964Z,0.00
2019-05-29T00:07:39.156Z,0.00
2019-05-29T00:08:39.158Z,0.00
2019-05-29T00:09:39.006Z,0.00
2019-05-29T00:10:38.974Z,0.00
2019-05-29T00:11:39.066Z,0.00
2019-05-29T00:12:39.069Z,0.00
2019-05-29T00:13:38.990Z,0.00
2019-05-29T00:14:39.668Z,0.00
2019-05-29T00:15:39.551Z,0.00
2019-05-29T00:16:39.090Z,0.00
2019-05-29T00:17:39.784Z,0.00
2019-05-29T00:18:40.059Z,0.00
2019-05-29T00:19:39.454Z,0.00
2019-05-29T00:20:39.412Z,0.00
2019-05-29T00:21:39.026Z,0.00
2019-05-29T00:22:39.004Z,0.00
2019-05-29T00:23:39.421Z,0.00
2019-05-29T00:24:39.044Z,0.00
2019-05-29T00:25:39.210Z,0.00
2019-05-29T00:26:39.392Z,0.00
2019-05-29T00:27:40.010Z,0.00
2019-05-29T00:28:39.333Z,0.00
2019-05-29T00:29:39.088Z,0.00
2019-05-29T00:30:39.267Z,0.00
2019-05-29T00:31:39.448Z,0.00
2019-05-29T00:32:39.103Z,0.00
2019-05-29T00:33:39.081Z,0.00
2019-05-29T00:34:39.091Z,0.00
2019-05-29T00:35:39.899Z,0.00
2019-05-29T00:36:39.678Z,0.00
2019-05-29T00:37:40.197Z,0.00
2019-05-29T00:38:39.113Z,0.00
2019-05-29T00:39:39.685Z,0.00
2019-05-29T00:40:39.487Z,0.00
2019-05-29T00:41:40.147Z,0.00
2019-05-29T00:42:39.173Z,0.00
2019-05-29T00:43:39.147Z,0.00
2019-05-29T00:44:39.459Z,0.00
2019-05-29T00:45:39.067Z,0.00
2019-05-29T00:46:39.033Z,0.00
2019-05-29T00:47:39.116Z,0.00
2019-05-29T00:48:39.085Z,0.00
2019-05-29T00:49:39.371Z,0.00
2019-05-29T00:50:39.280Z,0.00
2019-05-29T00:51:39.375Z,0.00
2019-05-29T00:52:39.182Z,0.00
2019-05-29T00:53:39.938Z,0.00
2019-05-29T00:54:39.061Z,0.00
2019-05-29T00:55:39.254Z,0.00
2019-05-29T00:56:39.137Z,0.52
2019-05-29T00:57:39.115Z,0.02
2019-05-29T00:58:41.427Z,0.14
2019-05-29T00:59:39.017Z,0.26
2019-05-29T01:00:39.141Z,0.00
2019-05-29T01:01:39.681Z,0.00
2019-05-29T01:02:39.148Z,0.15
2019-05-29T01:03:39.113Z,0.14
2019-05-29T01:04:39.669Z,0.00
2019-05-29T01:05:39.166Z,0.01
2019-05-29T01:06:39.465Z,0.00
2019-05-29T01:07:39.433Z,0.00
2019-05-29T01:08:39.025Z,0.00
2019-05-29T01:09:39.703Z,0.00
2019-05-29T01:10:39.406Z,0.00
2019-05-29T01:11:39.041Z,0.00
2019-05-29T01:12:39.374Z,0.00
2019-05-29T01:13:39.621Z,0.00
2019-05-29T01:14:49.529Z,0.00
2019-05-29T01:15:39.199Z,0.00
2019-05-29T01:16:39.067Z,0.00
2019-05-29T01:17:39.597Z,0.00
2019-05-29T01:18:39.117Z,0.00
2019-05-29T01:19:39.359Z,0.00
2019-05-29T01:20:39.511Z,0.00
2019-05-29T01:21:39.956Z,0.00
2019-05-29T01:22:39.073Z,0.00
2019-05-29T01:23:39.056Z,0.00
2019-05-29T01:24:39.846Z,0.00
2019-05-29T01:25:39.422Z,0.00
2019-05-29T01:26:39.068Z,0.00
2019-05-29T01:27:39.507Z,0.00
2019-05-29T01:28:39.092Z,0.00
2019-05-29T01:29:39.045Z,0.00
2019-05-29T01:30:39.328Z,0.00
2019-05-29T01:31:39.294Z,0.00
2019-05-29T01:32:39.157Z,0.00
2019-05-29T01:33:39.497Z,0.00
2019-05-29T01:34:39.441Z,0.00
2019-05-29T01:35:39.127Z,0.00
2019-05-29T01:36:39.156Z,0.00
2019-05-29T01:37:39.903Z,0.00
2019-05-29T01:38:39.130Z,0.00
2019-05-29T01:39:39.152Z,0.00
2019-05-29T01:40:39.844Z,0.00
2019-05-29T01:41:39.828Z,0.00
2019-05-29T01:42:39.068Z,0.00
2019-05-29T01:43:39.748Z,0.00
2019-05-29T01:44:39.426Z,0.00
2019-05-29T01:45:40.196Z,0.00
2019-05-29T01:46:40.067Z,0.00
2019-05-29T01:47:39.621Z,0.00
2019-05-29T01:48:39.052Z,0.00
2019-05-29T01:49:39.135Z,0.00
2019-05-29T01:50:39.084Z,0.00
2019-05-29T01:51:39.658Z,0.00
2019-05-29T01:52:39.136Z,0.00
2019-05-29T01:53:39.454Z,0.00
2019-05-29T01:54:39.351Z,0.00
2019-05-29T01:55:39.644Z,0.00
2019-05-29T01:56:39.376Z,0.00
2019-05-29T01:57:39.052Z,0.00
2019-05-29T01:58:40.345Z,0.00
2019-05-29T01:59:39.163Z,0.00
2019-05-29T02:00:39.449Z,0.00
2019-05-29T02:01:40.101Z,0.00
2019-05-29T02:02:39.466Z,0.00
2019-05-29T02:03:39.086Z,0.00
2019-05-29T02:04:40.052Z,0.00
2019-05-29T02:05:39.840Z,0.00
2019-05-29T02:06:39.840Z,0.00
2019-05-29T02:07:39.156Z,0.00
2019-05-29T02:08:39.122Z,0.00
2019-05-29T02:09:39.806Z,0.00
2019-05-29T02:10:39.174Z,0.00
2019-05-29T02:11:39.259Z,0.00
2019-05-29T02:12:39.458Z,0.00
2019-05-29T02:13:39.091Z,0.00
2019-05-29T02:14:39.074Z,0.00
2019-05-29T02:15:39.099Z,0.00
2019-05-29T02:16:39.194Z,0.00
2019-05-29T02:17:39.142Z,0.00
2019-05-29T02:18:39.489Z,0.00
2019-05-29T02:19:39.708Z,0.00
2019-05-29T02:20:39.710Z,0.00
2019-05-29T02:21:39.144Z,0.00
2019-05-29T02:22:39.207Z,0.00
2019-05-29T02:23:39.522Z,0.00
2019-05-29T02:24:39.118Z,0.00
2019-05-29T02:25:39.110Z,0.00
2019-05-29T02:26:40.039Z,0.00
2019-05-29T02:27:39.318Z,0.00
2019-05-29T02:28:39.433Z,0.00
2019-05-29T02:29:39.161Z,0.00
2019-05-29T02:30:39.459Z,0.00
2019-05-29T02:31:39.241Z,0.00
2019-05-29T02:32:39.894Z,0.00
2019-05-29T02:33:39.137Z,0.00
2019-05-29T02:34:39.834Z,0.00
2019-05-29T02:35:39.155Z,0.00
2019-05-29T02:36:39.200Z,0.00
2019-05-29T02:37:39.101Z,0.00
2019-05-29T02:38:39.168Z,0.00
2019-05-29T02:39:39.123Z,0.00
2019-05-29T02:40:39.558Z,0.00
2019-05-29T02:41:40.416Z,0.00
2019-05-29T02:42:40.192Z,0.00
2019-05-29T02:43:39.648Z,0.00
2019-05-29T02:44:39.588Z,0.00
2019-05-29T02:45:53.857Z,0.00
2019-05-29T02:46:39.651Z,0.00
2019-05-29T02:47:39.724Z,0.00
2019-05-29T02:48:39.794Z,0.00
2019-05-29T02:49:39.220Z,0.00
2019-05-29T02:50:39.915Z,0.00
2019-05-29T02:51:39.547Z,0.00
2019-05-29T02:52:39.181Z,0.00
2019-05-29T02:53:39.917Z,0.00
2019-05-29T02:54:39.277Z,0.00
2019-05-29T02:55:39.137Z,0.00
2019-05-29T02:56:42.416Z,0.00
2019-05-29T02:57:39.225Z,0.00
2019-05-29T02:58:39.919Z,0.00
2019-05-29T02:59:39.221Z,0.00
2019-05-29T03:00:39.198Z,0.00
2019-05-29T03:01:39.491Z,0.00
2019-05-29T03:02:40.263Z,0.00
2019-05-29T03:03:40.096Z,0.00
2019-05-29T03:04:39.146Z,0.00
2019-05-29T03:05:39.599Z,0.00
2019-05-29T03:06:39.202Z,0.00
2019-05-29T03:07:39.643Z,0.00
2019-05-29T03:08:40.003Z,0.00
2019-05-29T03:09:39.194Z,0.00
2019-05-29T03:10:39.530Z,0.00
2019-05-29T03:11:39.243Z,0.00
2019-05-29T03:12:39.208Z,0.00
2019-05-29T03:13:39.322Z,0.00
2019-05-29T03:14:40.240Z,0.00
2019-05-29T03:15:39.516Z,0.00
2019-05-29T03:16:39.231Z,0.00
2019-05-29T03:17:40.409Z,0.00
2019-05-29T03:18:39.243Z,0.00
2019-05-29T03:19:39.152Z,0.00
2019-05-29T03:20:39.207Z,0.00
2019-05-29T03:21:39.407Z,0.00
2019-05-29T03:22:40.511Z,0.00
2019-05-29T03:23:39.685Z,0.00
2019-05-29T03:24:39.240Z,0.00
2019-05-29T03:25:39.200Z,0.00
2019-05-29T03:26:39.530Z,0.00
2019-05-29T03:27:39.250Z,0.00
2019-05-29T03:28:39.219Z,0.00
2019-05-29T03:29:39.546Z,0.00
2019-05-29T03:30:45.732Z,0.00
2019-05-29T03:31:46.573Z,0.00
2019-05-29T03:32:47.338Z,0.00
2019-05-29T03:33:47.791Z,0.00
2019-05-29T03:34:45.619Z,0.00
2019-05-29T03:35:46.788Z,0.00
2019-05-29T03:36:43.555Z,0.00
2019-05-29T03:37:39.831Z,0.00
2019-05-29T03:38:39.174Z,0.00
2019-05-29T03:39:39.243Z,0.00
2019-05-29T03:40:39.214Z,0.00
2019-05-29T03:41:39.250Z,0.00
2019-05-29T03:42:39.392Z,0.00
2019-05-29T03:43:39.919Z,0.00
2019-05-29T03:44:39.316Z,0.00
2019-05-29T03:45:39.274Z,0.00
2019-05-29T03:46:45.302Z,0.00
2019-05-29T03:47:39.224Z,0.00
2019-05-29T03:48:39.262Z,0.00
2019-05-29T03:49:39.261Z,0.00
2019-05-29T03:50:39.409Z,0.00
2019-05-29T03:51:39.261Z,0.00
2019-05-29T03:52:39.263Z,0.00
2019-05-29T03:53:39.553Z,0.00
2019-05-29T03:54:39.306Z,0.00
2019-05-29T03:55:39.874Z,0.00
2019-05-29T03:56:39.539Z,0.00
2019-05-29T03:57:39.862Z,0.00
2019-05-29T03:58:39.253Z,0.00
2019-05-29T03:59:39.622Z,0.00
2019-05-29T04:00:46.064Z,0.00
2019-05-29T04:01:39.274Z,0.00
2019-05-29T04:02:39.197Z,0.00
2019-05-29T04:03:39.157Z,0.00
2019-05-29T04:04:39.315Z,0.00
2019-05-29T04:05:39.193Z,0.00
2019-05-29T04:06:39.167Z,0.00
2019-05-29T04:07:39.785Z,0.00
2019-05-29T04:08:39.398Z,0.00
2019-05-29T04:09:39.213Z,0.00
2019-05-29T04:10:39.786Z,0.00
2019-05-29T04:11:39.380Z,0.00
2019-05-29T04:12:39.519Z,0.00
2019-05-29T04:13:39.586Z,0.00
2019-05-29T04:14:39.276Z,0.00
2019-05-29T04:15:39.191Z,0.00
2019-05-29T04:16:57.764Z,0.00
2019-05-29T04:17:39.319Z,0.00
2019-05-29T04:18:39.526Z,0.00
2019-05-29T04:19:40.107Z,0.00
2019-05-29T04:20:39.858Z,0.00
2019-05-29T04:21:39.549Z,0.00
2019-05-29T04:22:39.980Z,0.00
2019-05-29T04:23:40.183Z,0.00
2019-05-29T04:24:39.537Z,0.00
2019-05-29T04:25:42.471Z,0.00
2019-05-29T04:26:39.270Z,0.00
2019-05-29T04:27:39.218Z,0.00
2019-05-29T04:28:39.302Z,0.00
2019-05-29T04:29:39.244Z,0.00
2019-05-29T04:30:39.946Z,0.00
2019-05-29T04:31:39.297Z,0.00
2019-05-29T04:32:39.863Z,0.00
2019-05-29T04:33:39.919Z,0.00
2019-05-29T04:34:40.017Z,0.00
2019-05-29T04:35:39.855Z,0.00
2019-05-29T04:36:39.573Z,0.00
2019-05-29T04:37:40.003Z,0.00
2019-05-29T04:38:40.428Z,0.00
2019-05-29T04:39:39.247Z,0.00
2019-05-29T04:40:39.751Z,0.00
2019-05-29T04:41:39.419Z,0.00
2019-05-29T04:42:40.093Z,0.03
2019-05-29T04:43:39.971Z,0.14
2019-05-29T04:44:41.098Z,0.00
2019-05-29T04:45:40.016Z,0.00
2019-05-29T04:46:40.622Z,0.00
2019-05-29T04:47:40.430Z,0.00
2019-05-29T04:48:40.443Z,0.00
2019-05-29T04:49:39.911Z,0.00
2019-05-29T04:50:40.696Z,0.00
2019-05-29T04:51:40.338Z,0.00
2019-05-29T04:52:40.368Z,0.00
2019-05-29T04:53:39.873Z,0.00
2019-05-29T04:54:40.218Z,0.00
2019-05-29T04:55:39.203Z,0.00
2019-05-29T04:56:39.293Z,0.00
2019-05-29T04:57:39.452Z,0.00
2019-05-29T04:58:39.825Z,0.00
2019-05-29T04:59:39.647Z,0.00
2019-05-29T05:00:39.454Z,0.00
2019-05-29T05:01:39.411Z,0.00
2019-05-29T05:02:39.596Z,0.00
2019-05-29T05:03:39.585Z,0.00
2019-05-29T05:04:39.470Z,0.00
2019-05-29T05:05:39.596Z,0.00
2019-05-29T05:06:40.414Z,0.00
2019-05-29T05:07:39.813Z,0.00
2019-05-29T05:08:39.789Z,0.00
2019-05-29T05:09:39.666Z,0.08
2019-05-29T05:10:40.906Z,0.05
2019-05-29T05:11:39.670Z,0.00
2019-05-29T05:12:40.091Z,0.00
2019-05-29T05:13:39.980Z,0.00
2019-05-29T05:14:39.862Z,0.00
2019-05-29T05:15:40.110Z,0.00
2019-05-29T05:16:39.958Z,0.00
2019-05-29T05:17:40.208Z,0.15
2019-05-29T05:18:40.350Z,0.01
2019-05-29T05:19:40.090Z,0.00
2019-05-29T05:20:40.509Z,0.00
2019-05-29T05:21:40.265Z,1.00
2019-05-29T05:22:41.073Z,0.06
2019-05-29T05:23:40.529Z,0.98
2019-05-29T05:24:43.491Z,0.71
2019-05-29T05:25:41.058Z,0.38
2019-05-29T05:26:40.356Z,0.33
2019-05-29T05:27:40.640Z,0.33
2019-05-29T05:28:42.089Z,0.27
2019-05-29T05:29:40.414Z,0.40
2019-05-29T05:30:40.646Z,0.36
2019-05-29T05:31:40.635Z,0.68
2019-05-29T05:32:39.360Z,0.31
2019-05-29T05:33:41.001Z,0.31
2019-05-29T05:34:40.912Z,0.64
2019-05-29T05:35:40.931Z,0.24
2019-05-29T05:36:40.886Z,1.99
2019-05-29T05:37:40.950Z,0.95
2019-05-29T05:38:39.361Z,1.06
2019-05-29T05:39:39.339Z,1.38
2019-05-29T05:40:41.362Z,1.19
2019-05-29T05:41:39.379Z,1.63
2019-05-29T05:42:39.349Z,1.32
2019-05-29T05:43:39.293Z,0.95
2019-05-29T05:44:39.385Z,0.19
2019-05-29T05:45:41.239Z,0.73
2019-05-29T05:46:39.360Z,0.12
2019-05-29T05:47:53.657Z,0.93
2019-05-29T05:48:39.321Z,2.12
2019-05-29T05:49:41.698Z,0.91
2019-05-29T05:50:41.755Z,1.26
2019-05-29T05:51:42.711Z,1.30
2019-05-29T05:52:40.068Z,1.08
2019-05-29T05:53:40.240Z,1.09
2019-05-29T05:54:39.760Z,0.84
2019-05-29T05:55:39.849Z,1.64
2019-05-29T05:56:41.701Z,1.51
2019-05-29T05:57:40.387Z,0.87
2019-05-29T05:58:39.950Z,0.83
2019-05-29T05:59:42.397Z,1.53
2019-05-29T06:00:39.892Z,0.89
2019-05-29T06:01:40.089Z,1.34
2019-05-29T06:02:40.248Z,0.64
2019-05-29T06:03:40.635Z,0.40
2019-05-29T06:04:39.996Z,1.28
2019-05-29T06:05:40.230Z,0.86
2019-05-29T06:06:40.278Z,0.92
2019-05-29T06:07:40.444Z,1.37
2019-05-29T06:08:40.209Z,1.00
2019-05-29T06:09:40.440Z,1.02
2019-05-29T06:10:40.241Z,1.21
2019-05-29T06:11:40.418Z,0.73
2019-05-29T06:12:40.831Z,0.11
2019-05-29T06:13:40.485Z,1.00
2019-05-29T06:14:40.660Z,1.47
2019-05-29T06:15:40.530Z,1.57
2019-05-29T06:16:40.696Z,1.06
2019-05-29T06:17:40.639Z,0.78
2019-05-29T06:18:40.645Z,0.17
2019-05-29T06:19:41.013Z,0.76
2019-05-29T06:20:39.320Z,0.62
2019-05-29T06:21:39.506Z,0.90
2019-05-29T06:22:39.398Z,0.75
2019-05-29T06:23:41.026Z,0.25
2019-05-29T06:24:40.907Z,0.34
2019-05-29T06:25:40.734Z,1.53
2019-05-29T06:26:39.332Z,0.58
2019-05-29T06:27:39.760Z,0.42
2019-05-29T06:28:41.179Z,0.02
2019-05-29T06:29:41.296Z,0.58
2019-05-29T06:30:41.273Z,2.19
2019-05-29T06:31:39.888Z,1.60
2019-05-29T06:32:39.603Z,1.79
2019-05-29T06:33:41.525Z,2.42
2019-05-29T06:34:39.776Z,1.05
2019-05-29T06:35:39.685Z,0.01
2019-05-29T06:36:39.746Z,0.30
2019-05-29T06:37:40.188Z,0.51
2019-05-29T06:38:40.407Z,0.35
2019-05-29T06:39:39.700Z,0.55
2019-05-29T06:40:40.200Z,0.17
2019-05-29T06:41:40.365Z,1.14
2019-05-29T06:42:40.536Z,1.06
2019-05-29T06:43:40.339Z,0.80
2019-05-29T06:44:41.350Z,1.11
2019-05-29T06:45:40.099Z,0.51
2019-05-29T06:46:40.455Z,0.08
2019-05-29T06:47:40.836Z,0.92
2019-05-29T06:48:44.765Z,1.07
2019-05-29T06:49:40.313Z,1.26
2019-05-29T06:50:39.716Z,0.00
2019-05-29T06:51:41.345Z,0.70
2019-05-29T06:52:39.529Z,0.81
2019-05-29T06:53:41.679Z,1.55
2019-05-29T06:54:40.031Z,3.35
2019-05-29T06:55:39.894Z,1.10
2019-05-29T06:56:39.799Z,2.56
2019-05-29T06:57:40.285Z,1.29
2019-05-29T06:58:40.071Z,2.74
2019-05-29T06:59:40.441Z,0.70
2019-05-29T07:00:41.125Z,3.30
2019-05-29T07:01:39.781Z,2.01
2019-05-29T07:02:40.711Z,0.27
2019-05-29T07:03:40.037Z,1.93
2019-05-29T07:04:40.436Z,1.72
2019-05-29T07:05:39.874Z,2.46
2019-05-29T07:06:40.727Z,0.17
2019-05-29T07:07:40.324Z,0.11
2019-05-29T07:08:44.395Z,0.05
2019-05-29T07:09:39.431Z,0.00
2019-05-29T07:10:40.335Z,0.99
2019-05-29T07:11:39.802Z,0.99
2019-05-29T07:12:40.334Z,2.30
2019-05-29T07:13:41.838Z,3.98
2019-05-29T07:14:40.305Z,3.34
2019-05-29T07:15:40.763Z,3.74
2019-05-29T07:16:48.216Z,3.20
2019-05-29T07:17:40.442Z,2.00
2019-05-29T07:18:40.885Z,1.85
2019-05-29T07:19:56.645Z,2.01
2019-05-29T07:20:40.576Z,1.24
2019-05-29T07:21:40.824Z,1.07
2019-05-29T07:22:40.886Z,0.15
2019-05-29T07:23:41.099Z,1.71
2019-05-29T07:24:41.153Z,0.55
2019-05-29T07:25:40.873Z,2.15
2019-05-29T07:26:41.007Z,0.51
2019-05-29T07:27:40.846Z,0.57
2019-05-29T07:28:59.414Z,1.04
2019-05-29T07:29:40.734Z,2.24
2019-05-29T07:30:39.384Z,3.51
2019-05-29T07:31:39.503Z,3.80
2019-05-29T07:32:40.627Z,1.86
2019-05-29T07:33:39.467Z,3.18
2019-05-29T07:34:53.747Z,3.12
2019-05-29T07:35:39.475Z,1.28
2019-05-29T07:36:39.960Z,0.70
2019-05-29T07:37:39.771Z,0.00
2019-05-29T07:38:44.425Z,0.88
2019-05-29T07:39:39.871Z,1.56
2019-05-29T07:40:40.687Z,2.45
2019-05-29T07:41:39.616Z,1.54
2019-05-29T07:42:41.894Z,0.78
2019-05-29T07:43:39.752Z,1.87
2019-05-29T07:44:39.981Z,1.24
2019-05-29T07:45:40.579Z,2.46
2019-05-29T07:46:40.087Z,1.57
2019-05-29T07:47:40.419Z,0.47
2019-05-29T07:48:40.505Z,1.08
2019-05-29T07:49:41.831Z,0.00
2019-05-29T07:50:40.176Z,1.86
2019-05-29T07:51:40.493Z,1.56
2019-05-29T07:52:40.731Z,1.12
2019-05-29T07:53:40.167Z,1.10
2019-05-29T07:54:39.976Z,0.34
2019-05-29T07:55:40.400Z,0.57
2019-05-29T07:56:42.438Z,1.01
2019-05-29T07:57:40.700Z,3.66
2019-05-29T07:58:41.869Z,3.52
2019-05-29T07:59:40.467Z,1.94
2019-05-29T08:01:01.102Z,0.85
2019-05-29T08:01:40.731Z,2.88
2019-05-29T08:02:39.550Z,2.29
2019-05-29T08:03:39.439Z,1.05
2019-05-29T08:04:40.985Z,0.58
2019-05-29T08:05:39.528Z,0.00
2019-05-29T08:06:47.594Z,0.00
2019-05-29T08:07:41.423Z,2.60
2019-05-29T08:08:41.208Z,1.84
2019-05-29T08:09:41.385Z,2.68
2019-05-29T08:10:40.150Z,0.32
2019-05-29T08:11:39.834Z,0.86
2019-05-29T08:12:45.654Z,1.73
2019-05-29T08:13:39.878Z,0.81
2019-05-29T08:14:39.792Z,0.16
2019-05-29T08:15:53.920Z,0.19
2019-05-29T08:16:39.779Z,1.21
2019-05-29T08:17:40.059Z,0.78
2019-05-29T08:18:41.097Z,0.65
2019-05-29T08:19:56.943Z,0.13
2019-05-29T08:20:40.542Z,0.31
2019-05-29T08:21:41.026Z,1.20
2019-05-29T08:22:40.174Z,0.46
2019-05-29T08:23:40.304Z,0.05
2019-05-29T08:24:40.665Z,0.11
2019-05-29T08:25:41.392Z,1.28
2019-05-29T08:26:40.737Z,1.02
2019-05-29T08:27:40.605Z,1.99
2019-05-29T08:28:40.489Z,0.30
2019-05-29T08:29:40.591Z,1.52
2019-05-29T08:30:41.147Z,1.91
2019-05-29T08:31:40.611Z,1.07
2019-05-29T08:32:40.833Z,0.43
2019-05-29T08:33:40.718Z,0.41
2019-05-29T08:34:40.843Z,2.31
2019-05-29T08:35:41.095Z,2.02
2019-05-29T08:36:40.795Z,1.62
2019-05-29T08:37:40.857Z,0.67
2019-05-29T08:38:42.535Z,1.37
2019-05-29T08:39:41.108Z,3.00
2019-05-29T08:40:41.084Z,2.09
2019-05-29T08:41:47.899Z,1.55
2019-05-29T08:42:41.079Z,0.07
2019-05-29T08:43:39.709Z,0.41
2019-05-29T08:44:41.272Z,0.53
2019-05-29T08:45:39.594Z,0.34
2019-05-29T08:46:39.824Z,1.03
2019-05-29T08:47:41.382Z,1.32
2019-05-29T08:48:40.137Z,0.81
2019-05-29T08:49:39.810Z,1.10
2019-05-29T08:50:39.539Z,1.95
2019-05-29T08:51:40.168Z,0.76
2019-05-29T08:52:39.823Z,0.89
2019-05-29T08:53:42.424Z,2.19
2019-05-29T08:54:40.497Z,1.54
2019-05-29T08:55:39.504Z,1.04
2019-05-29T08:56:40.241Z,1.69
2019-05-29T08:57:40.604Z,1.90
2019-05-29T08:58:40.296Z,1.14
2019-05-29T08:59:39.754Z,1.21
2019-05-29T09:00:40.518Z,1.03
2019-05-29T09:01:40.264Z,1.01
2019-05-29T09:02:39.665Z,0.85
2019-05-29T09:03:39.555Z,0.04
2019-05-29T09:04:40.075Z,0.23
2019-05-29T09:05:40.315Z,0.42
2019-05-29T09:06:39.553Z,0.50
2019-05-29T09:07:39.508Z,2.21
2019-05-29T09:08:40.397Z,1.81
2019-05-29T09:09:39.572Z,2.41
2019-05-29T09:10:39.529Z,1.96
2019-05-29T09:11:39.603Z,0.55
2019-05-29T09:12:39.551Z,0.07
2019-05-29T09:13:39.560Z,2.74
2019-05-29T09:14:39.688Z,1.24
2019-05-29T09:15:39.549Z,1.29
2019-05-29T09:16:39.713Z,0.59
2019-05-29T09:17:42.386Z,0.65
2019-05-29T09:18:39.540Z,0.39
2019-05-29T09:19:39.525Z,1.25
2019-05-29T09:21:00.808Z,1.00
2019-05-29T09:21:39.605Z,0.62
2019-05-29T09:22:39.662Z,0.39
2019-05-29T09:23:39.611Z,2.09
2019-05-29T09:24:39.598Z,3.63
2019-05-29T09:25:39.614Z,4.17
2019-05-29T09:26:39.695Z,4.24
2019-05-29T09:27:39.608Z,1.35
2019-05-29T09:28:39.567Z,3.06
2019-05-29T09:29:40.020Z,2.98
2019-05-29T09:30:39.587Z,0.75
2019-05-29T09:31:39.663Z,2.36
2019-05-29T09:32:50.359Z,1.74
2019-05-29T09:33:39.565Z,0.28
2019-05-29T09:34:39.555Z,0.70
2019-05-29T09:35:39.862Z,1.33
2019-05-29T09:36:39.611Z,2.89
2019-05-29T09:37:40.278Z,1.39
2019-05-29T09:38:39.590Z,0.27
2019-05-29T09:39:39.607Z,0.44
2019-05-29T09:40:39.663Z,0.47
2019-05-29T09:41:39.666Z,0.60
2019-05-29T09:42:39.601Z,0.59
2019-05-29T09:43:55.228Z,0.65
2019-05-29T09:44:40.155Z,0.94
2019-05-29T09:45:39.625Z,0.33
2019-05-29T09:46:39.935Z,0.56
2019-05-29T09:47:39.549Z,0.74
2019-05-29T09:48:49.340Z,0.86
2019-05-29T09:49:39.580Z,0.86
2019-05-29T09:50:50.195Z,1.30
2019-05-29T09:51:39.661Z,2.44
2019-05-29T09:52:39.873Z,0.95
2019-05-29T09:53:41.018Z,0.64
2019-05-29T09:54:40.385Z,0.97
2019-05-29T09:55:39.590Z,0.66
2019-05-29T09:56:40.301Z,3.24
2019-05-29T09:57:39.976Z,2.03
2019-05-29T09:58:39.595Z,2.42
2019-05-29T09:59:40.379Z,2.31
2019-05-29T10:00:39.646Z,1.20
2019-05-29T10:01:39.582Z,2.68
2019-05-29T10:02:40.515Z,1.85
2019-05-29T10:03:40.060Z,1.71
2019-05-29T10:04:39.591Z,0.50
2019-05-29T10:05:39.601Z,1.00
2019-05-29T10:06:39.976Z,1.22
2019-05-29T10:07:40.034Z,0.66
2019-05-29T10:08:40.819Z,2.54
2019-05-29T10:09:39.618Z,1.33
2019-05-29T10:10:39.610Z,0.51
2019-05-29T10:11:39.582Z,1.72
2019-05-29T10:12:39.630Z,0.71
2019-05-29T10:13:39.622Z,0.37
2019-05-29T10:14:39.645Z,0.81
2019-05-29T10:15:39.682Z,0.97
2019-05-29T10:16:39.620Z,0.00
2019-05-29T10:17:40.496Z,2.06
2019-05-29T10:18:39.825Z,2.63
2019-05-29T10:19:39.723Z,2.94
2019-05-29T10:20:39.765Z,2.64
2019-05-29T10:21:40.930Z,1.07
2019-05-29T10:22:39.630Z,0.35
2019-05-29T10:23:39.588Z,0.73
2019-05-29T10:24:39.679Z,1.98
2019-05-29T10:25:39.634Z,3.48
2019-05-29T10:26:39.613Z,1.29
2019-05-29T10:27:40.120Z,0.29
2019-05-29T10:28:56.086Z,0.82
2019-05-29T10:29:39.625Z,3.48
2019-05-29T10:30:39.695Z,1.06
2019-05-29T10:31:39.616Z,0.98
2019-05-29T10:32:39.648Z,2.80
2019-05-29T10:33:40.082Z,1.25
2019-05-29T10:34:40.092Z,1.53
2019-05-29T10:35:39.626Z,0.69
2019-05-29T10:36:39.776Z,0.43
2019-05-29T10:37:39.867Z,1.28
2019-05-29T10:38:39.818Z,1.63
2019-05-29T10:39:40.047Z,1.68
2019-05-29T10:40:40.607Z,1.18
2019-05-29T10:41:40.124Z,0.37
2019-05-29T10:42:40.052Z,1.38
2019-05-29T10:43:39.685Z,1.20
2019-05-29T10:44:39.676Z,1.35
2019-05-29T10:45:40.053Z,1.65
2019-05-29T10:46:39.629Z,1.39
2019-05-29T10:47:39.634Z,0.27
2019-05-29T10:48:39.704Z,0.07
2019-05-29T10:49:39.680Z,0.43
2019-05-29T10:50:39.674Z,2.26
2019-05-29T10:51:56.961Z,3.11
2019-05-29T10:52:39.672Z,1.11
2019-05-29T10:53:39.676Z,0.01
2019-05-29T10:54:39.643Z,0.87
2019-05-29T10:55:39.655Z,2.44
2019-05-29T10:56:40.602Z,1.34
2019-05-29T10:57:39.715Z,0.58
2019-05-29T10:58:48.680Z,1.56
2019-05-29T10:59:40.722Z,0.85
2019-05-29T11:00:39.894Z,2.54
2019-05-29T11:01:40.409Z,1.65
2019-05-29T11:02:40.269Z,1.26
2019-05-29T11:03:39.706Z,1.98
2019-05-29T11:04:39.705Z,1.50
2019-05-29T11:05:39.651Z,1.83
2019-05-29T11:06:40.760Z,0.60
2019-05-29T11:07:39.706Z,0.00
2019-05-29T11:08:39.682Z,1.75
2019-05-29T11:09:44.572Z,1.15
2019-05-29T11:10:40.749Z,0.46
2019-05-29T11:11:40.108Z,0.95
2019-05-29T11:12:39.964Z,1.29
2019-05-29T11:13:39.722Z,0.87
2019-05-29T11:14:39.662Z,1.49
2019-05-29T11:15:40.699Z,1.50
2019-05-29T11:16:40.411Z,1.58
2019-05-29T11:17:39.737Z,1.20
2019-05-29T11:18:39.735Z,0.43
2019-05-29T11:19:39.704Z,1.76
2019-05-29T11:20:40.538Z,1.08
2019-05-29T11:21:40.238Z,1.57
2019-05-29T11:22:40.095Z,1.97
2019-05-29T11:23:40.057Z,0.31
2019-05-29T11:24:39.697Z,0.00
2019-05-29T11:25:39.739Z,0.09
2019-05-29T11:26:39.848Z,0.11
2019-05-29T11:27:39.974Z,0.98
2019-05-29T11:28:39.841Z,0.72
2019-05-29T11:29:39.707Z,0.45
2019-05-29T11:30:39.659Z,0.74
2019-05-29T11:31:39.906Z,0.27
2019-05-29T11:32:40.161Z,0.83
2019-05-29T11:33:39.873Z,0.33
2019-05-29T11:34:39.907Z,2.63
2019-05-29T11:35:54.822Z,2.39
2019-05-29T11:36:40.525Z,0.94
2019-05-29T11:37:40.884Z,0.68
2019-05-29T11:38:39.734Z,1.69
2019-05-29T11:39:39.682Z,1.27
2019-05-29T11:40:39.850Z,0.53
2019-05-29T11:41:40.493Z,0.95
2019-05-29T11:42:40.335Z,1.52
2019-05-29T11:43:40.493Z,0.93
2019-05-29T11:44:39.728Z,0.60
2019-05-29T11:45:39.791Z,0.61
2019-05-29T11:46:39.780Z,0.73
2019-05-29T11:47:39.723Z,1.82
2019-05-29T11:48:39.695Z,1.13
2019-05-29T11:49:39.772Z,2.57
2019-05-29T11:50:39.732Z,1.83
2019-05-29T11:51:44.095Z,1.41
2019-05-29T11:52:43.127Z,1.57
2019-05-29T11:53:39.801Z,0.07
2019-05-29T11:54:40.043Z,2.46
2019-05-29T11:55:39.749Z,2.64
2019-05-29T11:56:40.064Z,2.55
2019-05-29T11:57:40.048Z,2.50
2019-05-29T11:58:40.750Z,1.16
2019-05-29T11:59:40.778Z,1.58
2019-05-29T12:00:39.857Z,2.12
2019-05-29T12:01:50.255Z,0.99
2019-05-29T12:02:40.858Z,0.40
2019-05-29T12:04:05.601Z,2.53
2019-05-29T12:04:39.881Z,1.84
2019-05-29T12:05:40.488Z,1.97
2019-05-29T12:06:40.091Z,2.51
2019-05-29T12:07:39.830Z,1.98
2019-05-29T12:08:39.864Z,2.31
2019-05-29T12:09:40.072Z,1.80
2019-05-29T12:10:39.822Z,2.13
2019-05-29T12:11:40.426Z,2.76
2019-05-29T12:12:40.136Z,2.05
2019-05-29T12:13:39.818Z,2.08
2019-05-29T12:14:59.032Z,3.07
2019-05-29T12:15:39.773Z,3.45
2019-05-29T12:16:40.437Z,2.81
2019-05-29T12:17:40.210Z,2.68
2019-05-29T12:18:39.715Z,1.47
2019-05-29T12:19:39.812Z,3.37
2019-05-29T12:20:39.798Z,2.35
2019-05-29T12:21:42.563Z,1.64
2019-05-29T12:22:39.850Z,1.49
2019-05-29T12:23:40.101Z,1.07
2019-05-29T12:24:39.989Z,3.37
2019-05-29T12:25:39.815Z,2.36
2019-05-29T12:26:39.779Z,1.75
2019-05-29T12:27:40.405Z,1.56
2019-05-29T12:28:39.894Z,1.75
2019-05-29T12:29:39.823Z,0.54
2019-05-29T12:30:39.738Z,0.33
2019-05-29T12:31:39.917Z,1.87
2019-05-29T12:32:40.743Z,0.86
2019-05-29T12:33:39.848Z,0.25
2019-05-29T12:34:52.735Z,0.16
2019-05-29T12:35:39.801Z,1.01
2019-05-29T12:36:40.675Z,0.53
2019-05-29T12:37:39.864Z,1.14
2019-05-29T12:38:39.882Z,1.59
2019-05-29T12:39:43.576Z,2.56
2019-05-29T12:40:40.556Z,0.98
2019-05-29T12:41:40.979Z,1.87
2019-05-29T12:42:43.437Z,1.78
2019-05-29T12:43:40.524Z,0.97
2019-05-29T12:44:40.017Z,1.29
2019-05-29T12:45:41.299Z,0.62
2019-05-29T12:46:39.856Z,0.07
2019-05-29T12:47:40.359Z,0.23
2019-05-29T12:48:39.926Z,2.10
2019-05-29T12:49:40.066Z,2.83
2019-05-29T12:50:39.868Z,1.78
2019-05-29T12:51:40.494Z,2.05
2019-05-29T12:52:40.096Z,1.69
2019-05-29T12:53:39.821Z,1.12
2019-05-29T12:54:39.813Z,1.15
2019-05-29T12:55:40.568Z,1.51
2019-05-29T12:56:40.147Z,1.08
2019-05-29T12:57:40.364Z,1.42
2019-05-29T12:58:40.106Z,0.98
2019-05-29T12:59:39.852Z,1.73
2019-05-29T13:00:39.808Z,1.11
2019-05-29T13:01:39.841Z,1.81
2019-05-29T13:02:42.957Z,1.45
2019-05-29T13:03:39.833Z,2.10
2019-05-29T13:05:06.194Z,0.89
2019-05-29T13:05:40.216Z,1.98
2019-05-29T13:06:40.409Z,1.00
2019-05-29T13:07:40.916Z,0.54
2019-05-29T13:08:39.881Z,0.10
2019-05-29T13:09:40.195Z,0.15
2019-05-29T13:10:39.797Z,0.69
2019-05-29T13:11:39.870Z,0.38
2019-05-29T13:12:39.922Z,0.79
2019-05-29T13:13:40.640Z,2.13
2019-05-29T13:14:40.246Z,0.70
2019-05-29T13:15:39.826Z,1.73
2019-05-29T13:16:39.894Z,0.74
2019-05-29T13:17:40.558Z,1.34
2019-05-29T13:18:40.286Z,2.03